AFR22G VCBI-VRMM
Flight info
| Callsign | AFR22G |
|---|---|
| Flight time | 1h 4m |
| Altitude | 34000 |
| Route | LALU1D/22 TELIG M512 HOKEY |
| Aircraft | B77L/H-SDE1E2E3FGHIJ2J3J4J5M1RWXY/LB1D1 |
Departure
| Time | 2026-05-05 07:17 |
|---|---|
| Airport | Bandaranaike International Colombo Airport (VCBI) |
Arrival
| Time | 2026-05-05 08:21 |
|---|---|
| Airport | Velana International Airport (VRMM) |
| Time | Latitude | Longitude | Altitude | Speed | Heading |
|---|---|---|---|---|---|
| 2026-05-05 06:52 | 7.16755 | 79.87783 | 47 ft | 0 kts | 126° |
| 2026-05-05 07:03 | 7.16760 | 79.87776 | 47 ft | 2 kts | 126° |
| 2026-05-05 07:03 | 7.16768 | 79.87765 | 47 ft | 1 kts | 126° |
| 2026-05-05 07:03 | 7.16774 | 79.87757 | 46 ft | 2 kts | 122° |
| 2026-05-05 07:03 | 7.16780 | 79.87743 | 46 ft | 2 kts | 103° |
| 2026-05-05 07:04 | 7.16782 | 79.87728 | 46 ft | 2 kts | 90° |
| 2026-05-05 07:04 | 7.16781 | 79.87713 | 46 ft | 2 kts | 76° |
| 2026-05-05 07:04 | 7.16776 | 79.87699 | 45 ft | 2 kts | 62° |
| 2026-05-05 07:04 | 7.16768 | 79.87686 | 45 ft | 2 kts | 47° |
| 2026-05-05 07:05 | 7.16760 | 79.87679 | 45 ft | 0 kts | 37° |
| 2026-05-05 07:05 | 7.16757 | 79.87677 | 45 ft | 0 kts | 37° |
| 2026-05-05 07:06 | 7.16761 | 79.87680 | 45 ft | 1 kts | 37° |
| 2026-05-05 07:07 | 7.16763 | 79.87682 | 45 ft | 0 kts | 37° |
| 2026-05-05 07:07 | 7.16783 | 79.87696 | 45 ft | 4 kts | 37° |
| 2026-05-05 07:07 | 7.16814 | 79.87719 | 46 ft | 7 kts | 37° |
| 2026-05-05 07:07 | 7.16834 | 79.87734 | 46 ft | 3 kts | 37° |
| 2026-05-05 07:08 | 7.16860 | 79.87737 | 45 ft | 6 kts | 336° |
| 2026-05-05 07:08 | 7.16912 | 79.87709 | 45 ft | 8 kts | 350° |
| 2026-05-05 07:08 | 7.16974 | 79.87731 | 45 ft | 11 kts | 34° |
| 2026-05-05 07:08 | 7.17038 | 79.87779 | 45 ft | 10 kts | 37° |
| 2026-05-05 07:09 | 7.17097 | 79.87824 | 45 ft | 10 kts | 38° |
| 2026-05-05 07:09 | 7.17162 | 79.87874 | 45 ft | 11 kts | 38° |
| 2026-05-05 07:09 | 7.17237 | 79.87932 | 46 ft | 13 kts | 37° |
| 2026-05-05 07:09 | 7.17309 | 79.87987 | 47 ft | 11 kts | 37° |
| 2026-05-05 07:10 | 7.17373 | 79.88036 | 47 ft | 14 kts | 37° |
| 2026-05-05 07:10 | 7.17461 | 79.88104 | 47 ft | 15 kts | 37° |
| 2026-05-05 07:10 | 7.17539 | 79.88163 | 48 ft | 12 kts | 37° |
| 2026-05-05 07:10 | 7.17603 | 79.88212 | 49 ft | 10 kts | 37° |
| 2026-05-05 07:11 | 7.17657 | 79.88253 | 49 ft | 8 kts | 37° |
| 2026-05-05 07:11 | 7.17700 | 79.88286 | 50 ft | 7 kts | 37° |
| 2026-05-05 07:11 | 7.17735 | 79.88313 | 51 ft | 6 kts | 37° |
| 2026-05-05 07:11 | 7.17798 | 79.88361 | 51 ft | 15 kts | 37° |
| 2026-05-05 07:12 | 7.17891 | 79.88434 | 51 ft | 17 kts | 38° |
| 2026-05-05 07:12 | 7.17988 | 79.88508 | 51 ft | 18 kts | 37° |
| 2026-05-05 07:12 | 7.18082 | 79.88580 | 52 ft | 15 kts | 37° |
| 2026-05-05 07:12 | 7.18161 | 79.88641 | 53 ft | 12 kts | 37° |
| 2026-05-05 07:13 | 7.18231 | 79.88693 | 53 ft | 12 kts | 37° |
| 2026-05-05 07:13 | 7.18315 | 79.88757 | 53 ft | 18 kts | 37° |
| 2026-05-05 07:13 | 7.18423 | 79.88840 | 53 ft | 19 kts | 37° |
| 2026-05-05 07:13 | 7.18522 | 79.88916 | 53 ft | 15 kts | 37° |
| 2026-05-05 07:14 | 7.18615 | 79.88987 | 52 ft | 19 kts | 37° |
| 2026-05-05 07:14 | 7.18729 | 79.89075 | 51 ft | 20 kts | 37° |
| 2026-05-05 07:14 | 7.18838 | 79.89158 | 48 ft | 19 kts | 37° |
| 2026-05-05 07:14 | 7.18941 | 79.89236 | 48 ft | 17 kts | 37° |
| 2026-05-05 07:15 | 7.19034 | 79.89307 | 48 ft | 15 kts | 37° |
| 2026-05-05 07:15 | 7.19119 | 79.89375 | 46 ft | 15 kts | 38° |
| 2026-05-05 07:15 | 7.19209 | 79.89413 | 46 ft | 13 kts | 338° |
| 2026-05-05 07:15 | 7.19269 | 79.89352 | 47 ft | 10 kts | 310° |
| 2026-05-05 07:16 | 7.19295 | 79.89291 | 49 ft | 8 kts | 254° |
| 2026-05-05 07:16 | 7.19258 | 79.89252 | 50 ft | 7 kts | 220° |
| 2026-05-05 07:16 | 7.19045 | 79.89087 | 51 ft | 82 kts | 218° |
| 2026-05-05 07:16 | 7.18342 | 79.88549 | 60 ft | 166 kts | 219° |
| 2026-05-05 07:17 | 7.17333 | 79.87769 | 733 ft | 191 kts | 219° |
| 2026-05-05 07:17 | 7.16343 | 79.87045 | 1945 ft | 174 kts | 218° |
| 2026-05-05 07:17 | 7.15312 | 79.86282 | 2384 ft | 193 kts | 219° |
| 2026-05-05 07:17 | 7.14194 | 79.85420 | 2796 ft | 215 kts | 219° |
| 2026-05-05 07:18 | 7.12955 | 79.84463 | 3365 ft | 233 kts | 219° |
| 2026-05-05 07:18 | 7.11623 | 79.83434 | 3919 ft | 252 kts | 219° |
| 2026-05-05 07:18 | 7.10200 | 79.82336 | 4727 ft | 261 kts | 218° |
| 2026-05-05 07:18 | 7.08708 | 79.81186 | 5363 ft | 279 kts | 218° |
| 2026-05-05 07:19 | 7.07171 | 79.80002 | 6286 ft | 284 kts | 218° |
| 2026-05-05 07:19 | 7.05583 | 79.78778 | 7225 ft | 289 kts | 217° |
| 2026-05-05 07:19 | 7.03986 | 79.77548 | 8085 ft | 295 kts | 217° |
| 2026-05-05 07:19 | 7.02355 | 79.76293 | 9007 ft | 297 kts | 217° |
| 2026-05-05 07:20 | 7.00713 | 79.75028 | 9926 ft | 299 kts | 216° |
| 2026-05-05 07:20 | 6.99117 | 79.73658 | 10586 ft | 313 kts | 229° |
| 2026-05-05 07:20 | 6.97906 | 79.71741 | 11075 ft | 332 kts | 240° |
| 2026-05-05 07:20 | 6.96795 | 79.69622 | 11650 ft | 348 kts | 241° |
| 2026-05-05 07:21 | 6.95668 | 79.67441 | 12257 ft | 362 kts | 241° |
| 2026-05-05 07:21 | 6.94479 | 79.65138 | 12868 ft | 378 kts | 240° |
| 2026-05-05 07:21 | 6.93235 | 79.62727 | 13497 ft | 390 kts | 240° |
| 2026-05-05 07:21 | 6.91987 | 79.60308 | 14407 ft | 392 kts | 241° |
| 2026-05-05 07:22 | 6.90741 | 79.57892 | 15315 ft | 394 kts | 241° |
| 2026-05-05 07:22 | 6.89468 | 79.55424 | 16083 ft | 399 kts | 241° |
| 2026-05-05 07:22 | 6.88175 | 79.52919 | 16874 ft | 403 kts | 241° |
| 2026-05-05 07:22 | 6.86887 | 79.50422 | 17722 ft | 405 kts | 241° |
| 2026-05-05 07:23 | 6.85593 | 79.47916 | 18470 ft | 408 kts | 241° |
| 2026-05-05 07:23 | 6.84263 | 79.45340 | 19091 ft | 415 kts | 241° |
| 2026-05-05 07:23 | 6.82927 | 79.42753 | 19696 ft | 421 kts | 241° |
| 2026-05-05 07:23 | 6.81580 | 79.40144 | 20338 ft | 425 kts | 242° |
| 2026-05-05 07:24 | 6.80202 | 79.37476 | 20959 ft | 430 kts | 242° |
| 2026-05-05 07:24 | 6.78823 | 79.34807 | 21523 ft | 435 kts | 242° |
| 2026-05-05 07:24 | 6.77421 | 79.32092 | 22096 ft | 439 kts | 242° |
| 2026-05-05 07:24 | 6.76006 | 79.29354 | 22686 ft | 444 kts | 242° |
| 2026-05-05 07:25 | 6.74568 | 79.26569 | 23237 ft | 448 kts | 242° |
| 2026-05-05 07:25 | 6.73134 | 79.23795 | 23835 ft | 452 kts | 242° |
| 2026-05-05 07:25 | 6.71673 | 79.20968 | 24472 ft | 454 kts | 242° |
| 2026-05-05 07:25 | 6.70210 | 79.18139 | 25035 ft | 458 kts | 242° |
| 2026-05-05 07:26 | 6.68729 | 79.15274 | 25562 ft | 464 kts | 242° |
| 2026-05-05 07:26 | 6.67242 | 79.12399 | 26133 ft | 468 kts | 242° |
| 2026-05-05 07:26 | 6.65728 | 79.09471 | 26708 ft | 472 kts | 242° |
| 2026-05-05 07:26 | 6.64213 | 79.06543 | 27323 ft | 475 kts | 242° |
| 2026-05-05 07:27 | 6.62675 | 79.03570 | 27930 ft | 478 kts | 242° |
| 2026-05-05 07:27 | 6.61133 | 79.00591 | 28450 ft | 483 kts | 242° |
| 2026-05-05 07:27 | 6.59577 | 78.97584 | 28992 ft | 488 kts | 242° |
| 2026-05-05 07:27 | 6.57994 | 78.94526 | 29622 ft | 491 kts | 242° |
| 2026-05-05 07:28 | 6.56424 | 78.91494 | 30438 ft | 489 kts | 242° |
| 2026-05-05 07:28 | 6.54854 | 78.88463 | 31331 ft | 485 kts | 242° |
| 2026-05-05 07:28 | 6.53304 | 78.85468 | 32230 ft | 480 kts | 242° |
| 2026-05-05 07:28 | 6.51776 | 78.82519 | 32974 ft | 479 kts | 242° |
| 2026-05-05 07:29 | 6.50229 | 78.79533 | 33614 ft | 481 kts | 242° |
| 2026-05-05 07:29 | 6.48677 | 78.76538 | 33872 ft | 486 kts | 242° |
| 2026-05-05 07:29 | 6.47108 | 78.73511 | 33873 ft | 484 kts | 242° |
| 2026-05-05 07:30 | 6.43971 | 78.67459 | 33874 ft | 482 kts | 242° |
| 2026-05-05 07:30 | 6.39288 | 78.58431 | 33878 ft | 483 kts | 242° |
| 2026-05-05 07:31 | 6.36171 | 78.52424 | 33880 ft | 483 kts | 242° |
| 2026-05-05 07:31 | 6.33061 | 78.46432 | 33880 ft | 483 kts | 242° |
| 2026-05-05 07:32 | 6.29919 | 78.40380 | 33882 ft | 484 kts | 242° |
| 2026-05-05 07:32 | 6.26793 | 78.34361 | 33881 ft | 483 kts | 242° |
| 2026-05-05 07:33 | 6.23666 | 78.28344 | 33882 ft | 483 kts | 242° |
| 2026-05-05 07:33 | 6.20553 | 78.22353 | 33883 ft | 485 kts | 242° |
| 2026-05-05 07:34 | 6.17420 | 78.16328 | 33883 ft | 484 kts | 242° |
| 2026-05-05 07:34 | 6.14306 | 78.10341 | 33885 ft | 484 kts | 242° |
| 2026-05-05 07:35 | 6.11187 | 78.04346 | 33888 ft | 484 kts | 242° |
| 2026-05-05 07:35 | 6.08050 | 77.98319 | 33889 ft | 485 kts | 242° |
| 2026-05-05 07:36 | 6.04917 | 77.92302 | 33890 ft | 485 kts | 242° |
| 2026-05-05 07:36 | 6.01793 | 77.86303 | 33892 ft | 484 kts | 242° |
| 2026-05-05 07:37 | 5.98668 | 77.80302 | 33892 ft | 484 kts | 242° |
| 2026-05-05 07:37 | 5.95534 | 77.74290 | 33894 ft | 484 kts | 242° |
| 2026-05-05 07:38 | 5.92410 | 77.68298 | 33895 ft | 485 kts | 242° |
| 2026-05-05 07:38 | 5.89284 | 77.62302 | 33896 ft | 484 kts | 242° |
| 2026-05-05 07:39 | 5.86157 | 77.56307 | 33899 ft | 485 kts | 242° |
| 2026-05-05 07:39 | 5.83036 | 77.50326 | 33899 ft | 484 kts | 242° |
| 2026-05-05 07:40 | 5.79897 | 77.44312 | 33898 ft | 485 kts | 242° |
| 2026-05-05 07:40 | 5.76763 | 77.38309 | 33903 ft | 484 kts | 242° |
| 2026-05-05 07:41 | 5.73625 | 77.32301 | 33902 ft | 485 kts | 242° |
| 2026-05-05 07:41 | 5.70474 | 77.26269 | 33902 ft | 483 kts | 242° |
| 2026-05-05 07:42 | 5.67336 | 77.20264 | 33906 ft | 486 kts | 242° |
| 2026-05-05 07:42 | 5.64200 | 77.14265 | 33906 ft | 484 kts | 242° |
| 2026-05-05 07:43 | 5.61064 | 77.08267 | 33907 ft | 485 kts | 242° |
| 2026-05-05 07:43 | 5.57911 | 77.02239 | 33909 ft | 485 kts | 242° |
| 2026-05-05 07:44 | 5.54779 | 76.96253 | 33908 ft | 485 kts | 242° |
| 2026-05-05 07:44 | 5.51639 | 76.90249 | 33907 ft | 485 kts | 242° |
| 2026-05-05 07:45 | 5.48491 | 76.84238 | 33911 ft | 486 kts | 242° |
| 2026-05-05 07:45 | 5.45334 | 76.78209 | 33910 ft | 486 kts | 242° |
| 2026-05-05 07:46 | 5.42186 | 76.72201 | 33911 ft | 487 kts | 242° |
| 2026-05-05 07:46 | 5.39030 | 76.66178 | 33912 ft | 487 kts | 242° |
| 2026-05-05 07:47 | 5.35884 | 76.60175 | 33911 ft | 487 kts | 242° |
| 2026-05-05 07:47 | 5.32718 | 76.54137 | 33913 ft | 488 kts | 242° |
| 2026-05-05 07:48 | 5.29559 | 76.48113 | 33911 ft | 488 kts | 242° |
| 2026-05-05 07:48 | 5.26405 | 76.42103 | 33910 ft | 488 kts | 242° |
| 2026-05-05 07:49 | 5.23199 | 76.35993 | 33912 ft | 489 kts | 242° |
| 2026-05-05 07:49 | 5.20037 | 76.29968 | 33910 ft | 490 kts | 242° |
| 2026-05-05 07:50 | 5.16868 | 76.23933 | 33910 ft | 489 kts | 242° |
| 2026-05-05 07:50 | 5.13688 | 76.17879 | 33909 ft | 491 kts | 242° |
| 2026-05-05 07:51 | 5.10677 | 76.11772 | 33904 ft | 490 kts | 250° |
| 2026-05-05 07:51 | 5.08591 | 76.05209 | 33911 ft | 492 kts | 253° |
| 2026-05-05 07:52 | 5.06592 | 75.98671 | 33912 ft | 491 kts | 253° |
| 2026-05-05 07:52 | 5.04584 | 75.92124 | 33910 ft | 492 kts | 253° |
| 2026-05-05 07:53 | 5.02572 | 75.85569 | 33911 ft | 492 kts | 253° |
| 2026-05-05 07:53 | 5.00555 | 75.79008 | 33912 ft | 491 kts | 253° |
| 2026-05-05 07:54 | 4.98539 | 75.72455 | 33913 ft | 493 kts | 253° |
| 2026-05-05 07:54 | 4.96506 | 75.65848 | 33910 ft | 493 kts | 252° |
| 2026-05-05 07:55 | 4.94485 | 75.59285 | 33910 ft | 492 kts | 252° |
| 2026-05-05 07:55 | 4.92460 | 75.52711 | 33914 ft | 492 kts | 252° |
| 2026-05-05 07:56 | 4.90442 | 75.46162 | 33909 ft | 491 kts | 252° |
| 2026-05-05 07:56 | 4.89294 | 75.42439 | 33913 ft | 493 kts | 252° |
| 2026-05-05 07:58 | 4.88679 | 75.40443 | 33911 ft | 492 kts | 252° |
| 2026-05-05 07:58 | 4.86653 | 75.33882 | 33912 ft | 491 kts | 252° |
| 2026-05-05 07:59 | 4.84632 | 75.27341 | 33881 ft | 488 kts | 252° |
| 2026-05-05 07:59 | 4.83626 | 75.24087 | 33267 ft | 486 kts | 252° |
| 2026-05-05 07:59 | 4.82625 | 75.20850 | 32305 ft | 490 kts | 252° |
| 2026-05-05 08:00 | 4.81603 | 75.17545 | 31524 ft | 491 kts | 252° |
| 2026-05-05 08:00 | 4.80585 | 75.14252 | 30745 ft | 492 kts | 252° |
| 2026-05-05 08:00 | 4.79581 | 75.11005 | 30244 ft | 487 kts | 252° |
| 2026-05-05 08:00 | 4.78583 | 75.07780 | 29798 ft | 481 kts | 252° |
| 2026-05-05 08:01 | 4.77593 | 75.04582 | 29304 ft | 476 kts | 252° |
| 2026-05-05 08:01 | 4.76627 | 75.01459 | 28800 ft | 472 kts | 252° |
| 2026-05-05 08:01 | 4.75658 | 74.98327 | 28296 ft | 468 kts | 252° |
| 2026-05-05 08:01 | 4.74696 | 74.95220 | 27788 ft | 464 kts | 252° |
| 2026-05-05 08:02 | 4.73742 | 74.92141 | 27278 ft | 461 kts | 252° |
| 2026-05-05 08:02 | 4.72798 | 74.89092 | 26752 ft | 458 kts | 252° |
| 2026-05-05 08:02 | 4.71858 | 74.86056 | 26226 ft | 455 kts | 252° |
| 2026-05-05 08:02 | 4.70923 | 74.83039 | 25701 ft | 452 kts | 252° |
| 2026-05-05 08:03 | 4.69995 | 74.80045 | 25165 ft | 449 kts | 252° |
| 2026-05-05 08:03 | 4.69083 | 74.77085 | 24631 ft | 446 kts | 252° |
| 2026-05-05 08:03 | 4.68170 | 74.74137 | 24095 ft | 443 kts | 252° |
| 2026-05-05 08:03 | 4.67256 | 74.71193 | 23562 ft | 440 kts | 252° |
| 2026-05-05 08:04 | 4.66354 | 74.68287 | 23035 ft | 436 kts | 252° |
| 2026-05-05 08:04 | 4.65446 | 74.65364 | 22495 ft | 433 kts | 252° |
| 2026-05-05 08:04 | 4.64564 | 74.62519 | 21978 ft | 430 kts | 252° |
| 2026-05-05 08:04 | 4.63681 | 74.59675 | 21463 ft | 427 kts | 252° |
| 2026-05-05 08:05 | 4.62800 | 74.56835 | 20929 ft | 424 kts | 252° |
| 2026-05-05 08:05 | 4.61926 | 74.54019 | 20395 ft | 422 kts | 252° |
| 2026-05-05 08:05 | 4.61065 | 74.51247 | 19868 ft | 419 kts | 252° |
| 2026-05-05 08:05 | 4.60206 | 74.48477 | 19336 ft | 417 kts | 252° |
| 2026-05-05 08:06 | 4.59338 | 74.45683 | 18800 ft | 414 kts | 252° |
| 2026-05-05 08:06 | 4.58489 | 74.42947 | 18273 ft | 412 kts | 252° |
| 2026-05-05 08:06 | 4.57639 | 74.40212 | 17738 ft | 409 kts | 252° |
| 2026-05-05 08:06 | 4.56794 | 74.37490 | 17212 ft | 406 kts | 252° |
| 2026-05-05 08:07 | 4.55963 | 74.34815 | 16693 ft | 404 kts | 252° |
| 2026-05-05 08:07 | 4.55125 | 74.32117 | 16165 ft | 401 kts | 252° |
| 2026-05-05 08:07 | 4.54302 | 74.29470 | 15645 ft | 399 kts | 252° |
| 2026-05-05 08:07 | 4.53543 | 74.26789 | 15120 ft | 396 kts | 256° |
| 2026-05-05 08:08 | 4.52930 | 74.24114 | 14602 ft | 393 kts | 257° |
| 2026-05-05 08:08 | 4.52328 | 74.21470 | 14087 ft | 391 kts | 257° |
| 2026-05-05 08:08 | 4.51720 | 74.18829 | 13571 ft | 388 kts | 257° |
| 2026-05-05 08:08 | 4.51105 | 74.16180 | 13052 ft | 386 kts | 257° |
| 2026-05-05 08:09 | 4.50502 | 74.13591 | 12544 ft | 383 kts | 257° |
| 2026-05-05 08:09 | 4.49896 | 74.11003 | 12036 ft | 381 kts | 257° |
| 2026-05-05 08:09 | 4.49290 | 74.08421 | 11526 ft | 378 kts | 257° |
| 2026-05-05 08:09 | 4.48688 | 74.05862 | 11023 ft | 376 kts | 257° |
| 2026-05-05 08:10 | 4.48084 | 74.03298 | 10653 ft | 368 kts | 257° |
| 2026-05-05 08:10 | 4.47510 | 74.00861 | 10562 ft | 354 kts | 257° |
| 2026-05-05 08:10 | 4.46951 | 73.98492 | 10457 ft | 341 kts | 257° |
| 2026-05-05 08:10 | 4.46410 | 73.96200 | 10328 ft | 329 kts | 257° |
| 2026-05-05 08:11 | 4.45897 | 73.94025 | 10191 ft | 318 kts | 257° |
| 2026-05-05 08:11 | 4.45391 | 73.91883 | 10057 ft | 308 kts | 257° |
| 2026-05-05 08:11 | 4.44901 | 73.89810 | 9839 ft | 302 kts | 257° |
| 2026-05-05 08:11 | 4.44538 | 73.87747 | 9556 ft | 296 kts | 267° |
| 2026-05-05 08:12 | 4.44487 | 73.85752 | 9321 ft | 286 kts | 270° |
| 2026-05-05 08:12 | 4.44491 | 73.83747 | 8854 ft | 287 kts | 271° |
| 2026-05-05 08:12 | 4.44497 | 73.81748 | 8446 ft | 288 kts | 270° |
| 2026-05-05 08:12 | 4.44499 | 73.79727 | 8119 ft | 286 kts | 270° |
| 2026-05-05 08:13 | 4.44500 | 73.77741 | 7745 ft | 285 kts | 270° |
| 2026-05-05 08:13 | 4.44499 | 73.75776 | 7389 ft | 283 kts | 270° |
| 2026-05-05 08:13 | 4.44495 | 73.73815 | 7043 ft | 280 kts | 270° |
| 2026-05-05 08:13 | 4.44490 | 73.71867 | 6705 ft | 277 kts | 270° |
| 2026-05-05 08:14 | 4.44485 | 73.69944 | 6358 ft | 273 kts | 270° |
| 2026-05-05 08:14 | 4.44480 | 73.68046 | 5906 ft | 270 kts | 270° |
| 2026-05-05 08:14 | 4.44476 | 73.66215 | 5699 ft | 261 kts | 270° |
| 2026-05-05 08:14 | 4.44471 | 73.64388 | 5429 ft | 259 kts | 270° |
| 2026-05-05 08:15 | 4.44472 | 73.62601 | 5177 ft | 255 kts | 270° |
| 2026-05-05 08:15 | 4.44473 | 73.60841 | 4943 ft | 251 kts | 270° |
| 2026-05-05 08:15 | 4.44474 | 73.59094 | 4717 ft | 247 kts | 270° |
| 2026-05-05 08:15 | 4.44474 | 73.57391 | 4495 ft | 244 kts | 270° |
| 2026-05-05 08:16 | 4.44411 | 73.55719 | 4257 ft | 241 kts | 258° |
| 2026-05-05 08:16 | 4.43675 | 73.54246 | 4016 ft | 238 kts | 227° |
| 2026-05-05 08:16 | 4.42293 | 73.53390 | 3848 ft | 232 kts | 200° |
| 2026-05-05 08:16 | 4.40695 | 73.53085 | 3546 ft | 232 kts | 185° |
| 2026-05-05 08:17 | 4.39088 | 73.53056 | 3297 ft | 230 kts | 181° |
| 2026-05-05 08:17 | 4.37473 | 73.53064 | 3017 ft | 228 kts | 181° |
| 2026-05-05 08:17 | 4.35892 | 73.53078 | 2745 ft | 227 kts | 181° |
| 2026-05-05 08:17 | 4.34296 | 73.53088 | 2461 ft | 226 kts | 182° |
| 2026-05-05 08:18 | 4.32725 | 73.53092 | 2183 ft | 224 kts | 181° |
| 2026-05-05 08:18 | 4.31224 | 73.53097 | 1912 ft | 207 kts | 182° |
| 2026-05-05 08:18 | 4.29817 | 73.53098 | 1672 ft | 193 kts | 182° |
| 2026-05-05 08:18 | 4.28504 | 73.53098 | 1435 ft | 179 kts | 182° |
| 2026-05-05 08:19 | 4.27316 | 73.53099 | 1221 ft | 164 kts | 183° |
| 2026-05-05 08:19 | 4.26194 | 73.53099 | 1025 ft | 158 kts | 183° |
| 2026-05-05 08:19 | 4.25100 | 73.53100 | 832 ft | 155 kts | 183° |
| 2026-05-05 08:19 | 4.24010 | 73.53099 | 627 ft | 153 kts | 184° |
| 2026-05-05 08:20 | 4.22945 | 73.53104 | 416 ft | 151 kts | 184° |
| 2026-05-05 08:20 | 4.21879 | 73.53100 | 207 ft | 152 kts | 184° |
| 2026-05-05 08:20 | 4.20824 | 73.53104 | 57 ft | 146 kts | 185° |
| 2026-05-05 08:20 | 4.19897 | 73.53098 | 15 ft | 117 kts | 180° |
| 2026-05-05 08:21 | 4.19231 | 73.53102 | 20 ft | 71 kts | 179° |
| 2026-05-05 08:21 | 4.18879 | 73.53101 | 21 ft | 41 kts | 181° |
| 2026-05-05 08:21 | 4.18632 | 73.53104 | 19 ft | 26 kts | 180° |
| 2026-05-05 08:21 | 4.18547 | 73.53030 | 18 ft | 16 kts | 266° |
| 2026-05-05 08:22 | 4.18553 | 73.52950 | 18 ft | 8 kts | 306° |
| 2026-05-05 08:22 | 4.18596 | 73.52911 | 19 ft | 9 kts | 298° |
| 2026-05-05 08:22 | 4.18623 | 73.52863 | 20 ft | 5 kts | 302° |
| 2026-05-05 08:22 | 4.18632 | 73.52831 | 20 ft | 5 kts | 274° |
| 2026-05-05 08:23 | 4.18632 | 73.52805 | 20 ft | 0 kts | 269° |